createdAt,value
2024-01-16T00:03:48.248Z,98450.72
2024-01-16T00:08:49.937Z,98437.22
2024-01-16T00:13:51.609Z,98447.53
2024-01-16T00:18:53.337Z,98455.94
2024-01-16T00:23:54.985Z,98479.19
2024-01-16T00:28:56.573Z,98486.03
2024-01-16T00:33:58.289Z,98508.03
2024-01-16T00:39:00.052Z,98530.28
2024-01-16T00:44:01.746Z,98542.16
2024-01-16T00:49:03.512Z,98552.63
2024-01-16T00:54:07.446Z,98566.53
2024-01-16T00:59:09.069Z,98583.47
2024-01-16T01:04:10.837Z,98593.50
2024-01-16T01:09:12.947Z,98609.44
2024-01-16T01:14:15.069Z,98599.03
2024-01-16T01:19:16.795Z,98616.28
2024-01-16T01:24:18.453Z,98615.13
2024-01-16T01:29:20.144Z,98621.19
2024-01-16T01:34:22.067Z,98632.50
2024-01-16T01:39:23.760Z,98642.72
2024-01-16T01:44:26.255Z,98653.81
2024-01-16T01:49:28.733Z,98662.09
2024-01-16T01:54:31.912Z,98669.19
2024-01-16T01:59:34.181Z,98671.66
2024-01-16T02:04:37.227Z,98673.28
2024-01-16T02:09:39.152Z,98678.31
2024-01-16T02:14:40.980Z,98684.38
2024-01-16T02:19:42.788Z,98692.34
2024-01-16T02:24:44.498Z,98699.53
2024-01-16T02:29:46.497Z,98697.34
2024-01-16T02:34:48.295Z,98704.97
2024-01-16T02:39:49.935Z,98720.81
2024-01-16T02:44:51.638Z,98732.94
2024-01-16T02:49:53.946Z,98734.81
2024-01-16T02:54:55.549Z,98739.75
2024-01-16T02:59:57.461Z,98747.38
2024-01-16T03:04:59.097Z,98752.47
2024-01-16T03:10:00.738Z,98760.25
2024-01-16T03:15:02.426Z,98764.16
2024-01-16T03:20:04.797Z,98753.00
2024-01-16T03:25:08.717Z,98759.19
2024-01-16T03:30:11.049Z,98776.16
2024-01-16T03:35:12.858Z,98768.25
2024-01-16T03:40:14.650Z,98768.41
2024-01-16T03:45:17.891Z,98754.06
2024-01-16T03:50:19.818Z,98764.13
2024-01-16T03:55:22.180Z,98767.41
2024-01-16T04:00:23.848Z,98783.28
2024-01-16T04:05:25.612Z,98800.06
2024-01-16T04:10:27.412Z,98789.75
2024-01-16T04:15:29.655Z,98786.94
2024-01-16T04:20:31.467Z,98790.72
2024-01-16T04:25:33.118Z,98801.06
2024-01-16T04:30:34.790Z,98812.13
2024-01-16T04:35:36.567Z,98821.75
2024-01-16T04:40:38.273Z,98823.16
2024-01-16T04:45:39.918Z,98806.09
2024-01-16T04:50:41.545Z,98814.28
2024-01-16T04:55:43.181Z,98815.44
2024-01-16T05:00:44.831Z,98829.28
2024-01-16T05:05:46.597Z,98833.88
2024-01-16T05:10:48.232Z,98836.91
2024-01-16T05:15:49.991Z,98831.13
2024-01-16T05:20:51.760Z,98830.22
2024-01-16T05:25:53.420Z,98824.91
2024-01-16T05:30:55.034Z,98829.50
2024-01-16T05:35:58.795Z,98832.16
2024-01-16T05:41:00.443Z,98841.91
2024-01-16T05:46:02.089Z,98841.25
2024-01-16T05:51:03.950Z,98852.47
2024-01-16T05:56:05.989Z,98852.63
2024-01-16T06:01:07.720Z,98850.78
2024-01-16T06:06:09.432Z,98858.38
2024-01-16T06:11:14.393Z,98850.97
2024-01-16T06:16:17.630Z,98867.97
2024-01-16T06:21:21.134Z,98899.44
2024-01-16T06:26:24.362Z,98910.22
2024-01-16T06:31:27.436Z,98921.31
2024-01-16T06:36:29.205Z,98923.97
2024-01-16T06:41:30.892Z,98924.91
2024-01-16T06:46:32.664Z,98943.47
2024-01-16T06:51:34.322Z,98963.94
2024-01-16T06:56:35.965Z,98961.13
2024-01-16T07:01:37.618Z,98964.53
2024-01-16T07:06:39.300Z,98991.75
2024-01-16T07:11:44.236Z,99014.13
2024-01-16T07:16:46.277Z,99011.47
2024-01-16T07:21:47.876Z,99033.06
2024-01-16T07:26:49.640Z,99045.03
2024-01-16T07:31:51.782Z,99058.97
2024-01-16T07:36:53.485Z,99045.53
2024-01-16T07:41:55.205Z,99060.47
2024-01-16T07:46:56.865Z,99074.19
2024-01-16T07:51:58.481Z,99072.88
2024-01-16T07:57:00.683Z,99069.91
2024-01-16T08:02:02.333Z,99086.44
2024-01-16T08:07:04.361Z,99094.03
2024-01-16T08:12:07.094Z,99100.56
2024-01-16T08:17:09.401Z,99124.25
2024-01-16T08:22:11.125Z,99135.19
2024-01-16T08:27:13.466Z,99146.69
2024-01-16T08:32:15.116Z,99151.31
2024-01-16T08:37:16.775Z,99166.31
2024-01-16T08:42:19.327Z,99161.19
2024-01-16T08:47:21.045Z,99161.81
2024-01-16T08:52:22.775Z,99158.59
2024-01-16T08:57:25.522Z,99156.88
2024-01-16T09:02:30.323Z,99177.19
2024-01-16T09:07:32.141Z,99177.09
2024-01-16T09:12:34.531Z,99170.34
2024-01-16T09:17:36.346Z,99178.66
2024-01-16T09:22:38.035Z,99177.25
2024-01-16T09:27:39.703Z,99191.75
2024-01-16T09:32:41.850Z,99186.88
2024-01-16T09:37:43.496Z,99200.84
2024-01-16T09:42:45.973Z,99200.06
2024-01-16T09:47:51.738Z,99195.75
2024-01-16T09:52:56.801Z,99205.59
2024-01-16T09:58:01.667Z,99205.91
2024-01-16T10:03:05.768Z,99213.13
2024-01-16T10:08:09.331Z,99221.59
2024-01-16T10:13:11.096Z,99229.78
2024-01-16T10:18:31.905Z,99234.66
2024-01-16T10:23:34.263Z,99235.19
2024-01-16T10:28:37.227Z,99240.31
2024-01-16T10:33:40.631Z,99250.63
2024-01-16T10:38:44.932Z,99251.13
2024-01-16T10:43:46.745Z,99257.66
2024-01-16T10:49:01.646Z,99259.88
2024-01-16T10:54:07.158Z,99272.06
2024-01-16T10:59:20.091Z,99272.94
2024-01-16T11:04:22.379Z,99272.06
2024-01-16T11:09:24.914Z,99274.28
2024-01-16T11:14:27.345Z,99262.56
2024-01-16T11:19:38.962Z,99261.59
2024-01-16T11:25:13.200Z,99278.25
2024-01-16T11:30:31.489Z,99284.13
2024-01-16T11:35:43.831Z,99284.59
2024-01-16T11:40:45.525Z,99290.53
2024-01-16T11:45:50.881Z,99294.88
2024-01-16T11:50:53.931Z,99278.00
2024-01-16T11:56:33.845Z,99287.75
2024-01-16T12:01:43.047Z,99295.03
2024-01-16T12:06:44.814Z,99296.06
2024-01-16T12:12:05.736Z,99299.38
2024-01-16T12:17:15.036Z,99301.50
2024-01-16T12:22:17.735Z,99302.19
2024-01-16T12:27:19.362Z,99308.34
2024-01-16T12:32:22.555Z,99315.25
2024-01-16T12:37:24.270Z,99317.13
2024-01-16T12:42:26.192Z,99322.19
2024-01-16T12:47:27.988Z,99330.78
2024-01-16T12:52:31.106Z,99335.06
2024-01-16T12:57:32.778Z,99345.53
2024-01-16T13:02:34.953Z,99349.91
2024-01-16T13:07:36.835Z,99350.34
2024-01-16T13:12:39.005Z,99355.56
2024-01-16T13:17:40.847Z,99348.41
2024-01-16T13:22:45.372Z,99354.47
2024-01-16T13:27:49.508Z,99350.19
2024-01-16T13:32:51.273Z,99348.38
2024-01-16T13:37:52.976Z,99339.19
2024-01-16T13:42:54.570Z,99343.50
2024-01-16T13:47:57.047Z,99352.16
2024-01-16T13:52:58.829Z,99353.97
2024-01-16T13:58:00.968Z,99360.63
2024-01-16T14:03:04.747Z,99363.19
2024-01-16T14:08:06.725Z,99360.28
2024-01-16T14:13:08.368Z,99367.31
2024-01-16T14:18:10.454Z,99375.41
2024-01-16T14:23:13.700Z,99372.47
2024-01-16T14:28:21.143Z,99369.72
2024-01-16T14:33:28.586Z,99363.88
2024-01-16T14:38:30.345Z,99368.78
2024-01-16T14:43:32.072Z,99370.81
2024-01-16T14:48:33.807Z,99362.97
2024-01-16T14:53:35.521Z,99361.28
2024-01-16T14:58:37.122Z,99374.09
2024-01-16T15:03:39.666Z,99376.47
2024-01-16T15:08:41.383Z,99379.84
2024-01-16T15:13:43.009Z,99390.25
2024-01-16T15:18:45.055Z,99402.09
2024-01-16T15:23:47.421Z,99403.06
2024-01-16T15:28:50.504Z,99405.38
2024-01-16T15:33:53.064Z,99410.00
2024-01-16T15:38:54.796Z,99410.59
2024-01-16T15:43:58.034Z,99419.09
2024-01-16T15:48:59.812Z,99412.94
2024-01-16T15:54:01.501Z,99413.69
2024-01-16T15:59:03.172Z,99420.38
2024-01-16T16:04:05.796Z,99412.34
2024-01-16T16:09:08.978Z,99407.09
2024-01-16T16:14:10.821Z,99400.38
2024-01-16T16:19:12.789Z,99409.75
2024-01-16T16:24:14.592Z,99412.56
2024-01-16T16:29:16.566Z,99423.00
2024-01-16T16:34:20.213Z,99419.97
2024-01-16T16:39:23.718Z,99432.94
2024-01-16T16:44:25.413Z,99435.88
2024-01-16T16:49:27.153Z,99442.50
2024-01-16T16:54:31.105Z,99449.56
2024-01-16T16:59:32.826Z,99449.59
2024-01-16T17:04:34.804Z,99438.34
2024-01-16T17:09:36.592Z,99443.63
2024-01-16T17:14:38.455Z,99449.84
2024-01-16T17:19:41.611Z,99447.72
2024-01-16T17:24:43.636Z,99460.38
2024-01-16T17:29:46.309Z,99474.91
2024-01-16T17:34:48.053Z,99466.03
2024-01-16T17:39:51.224Z,99451.84
2024-01-16T17:44:52.977Z,99454.97
2024-01-16T17:49:54.684Z,99470.09
2024-01-16T17:54:56.282Z,99475.91
2024-01-16T17:59:57.961Z,99468.78
2024-01-16T18:04:59.612Z,99477.78
2024-01-16T18:10:01.194Z,99482.38
2024-01-16T18:15:02.872Z,99486.75
2024-01-16T18:20:10.690Z,99486.53
2024-01-16T18:25:15.176Z,99473.53
2024-01-16T18:30:17.146Z,99476.84
2024-01-16T18:35:19.860Z,99475.88
2024-01-16T18:40:23.666Z,99474.81
2024-01-16T18:45:25.466Z,99483.22
2024-01-16T18:50:27.507Z,99479.69
2024-01-16T18:55:29.383Z,99479.81
2024-01-16T19:00:30.990Z,99483.13
2024-01-16T19:05:35.797Z,99482.88
2024-01-16T19:10:37.561Z,99494.53
2024-01-16T19:15:39.190Z,99482.66
2024-01-16T19:20:41.264Z,99479.47
2024-01-16T19:25:42.911Z,99492.75
2024-01-16T19:30:44.880Z,99487.94
2024-01-16T19:35:50.647Z,99480.88
2024-01-16T19:40:53.172Z,99486.34
2024-01-16T19:45:54.797Z,99478.38
2024-01-16T19:50:56.714Z,99476.44
2024-01-16T19:56:00.230Z,99480.94
2024-01-16T20:01:04.011Z,99481.41
2024-01-16T20:06:05.931Z,99484.25
2024-01-16T20:11:07.564Z,99488.31
2024-01-16T20:16:09.284Z,99476.38
2024-01-16T20:21:10.959Z,99484.44
2024-01-16T20:26:13.279Z,99485.97
2024-01-16T20:31:15.087Z,99489.78
2024-01-16T20:36:17.763Z,99479.75
2024-01-16T20:41:19.465Z,99483.59
2024-01-16T20:46:21.127Z,99488.06
2024-01-16T20:51:23.279Z,99494.19
2024-01-16T20:56:24.912Z,99493.50
2024-01-16T21:01:26.525Z,99495.75
2024-01-16T21:06:28.529Z,99500.59
2024-01-16T21:11:30.297Z,99498.63
2024-01-16T21:16:32.991Z,99485.69
2024-01-16T21:21:34.705Z,99484.97
2024-01-16T21:26:36.392Z,99479.16
2024-01-16T21:31:49.827Z,99474.56
2024-01-16T21:36:53.945Z,99470.66
2024-01-16T21:41:55.666Z,99468.47
2024-01-16T21:46:57.345Z,99483.16
2024-01-16T21:51:59.839Z,99474.69
2024-01-16T21:57:01.491Z,99481.63
2024-01-16T22:02:03.201Z,99494.59
2024-01-16T22:07:04.918Z,99493.34
2024-01-16T22:12:09.798Z,99487.81
2024-01-16T22:17:11.561Z,99482.28
2024-01-16T22:22:13.170Z,99477.47
2024-01-16T22:27:14.770Z,99471.16
2024-01-16T22:32:16.368Z,99467.00
2024-01-16T22:37:19.038Z,99457.44
2024-01-16T22:42:21.796Z,99464.81
2024-01-16T22:47:23.560Z,99451.38
2024-01-16T22:52:27.633Z,99451.88
2024-01-16T22:57:29.275Z,99444.72
2024-01-16T23:02:30.936Z,99450.38
2024-01-16T23:07:32.526Z,99435.69
2024-01-16T23:12:34.194Z,99445.59
2024-01-16T23:17:36.102Z,99444.81
2024-01-16T23:22:56.492Z,99440.19
2024-01-16T23:27:58.104Z,99439.94
2024-01-16T23:33:00.787Z,99433.28
2024-01-16T23:38:02.731Z,99429.59
2024-01-16T23:43:04.604Z,99420.13
2024-01-16T23:48:06.613Z,99404.31
2024-01-16T23:53:08.343Z,99401.34
2024-01-16T23:58:10.293Z,99411.16
